createdAt,value
2018-06-20T00:01:07.089Z,17.80
2018-06-20T00:04:10.181Z,17.90
2018-06-20T00:07:13.275Z,17.90
2018-06-20T00:13:19.229Z,17.80
2018-06-20T00:16:22.509Z,17.80
2018-06-20T00:19:25.587Z,17.80
2018-06-20T00:22:28.670Z,17.80
2018-06-20T00:25:31.905Z,17.80
2018-06-20T00:28:34.986Z,17.80
2018-06-20T00:31:38.063Z,17.90
2018-06-20T00:34:41.237Z,17.90
2018-06-20T00:37:44.337Z,17.90
2018-06-20T00:40:47.422Z,18.00
2018-06-20T00:43:50.517Z,17.90
2018-06-20T00:46:53.644Z,17.90
2018-06-20T00:49:56.717Z,17.90
2018-06-20T00:53:00.602Z,17.90
2018-06-20T00:56:15.029Z,17.80
2018-06-20T01:02:21.082Z,17.70
2018-06-20T01:05:24.180Z,17.70
2018-06-20T01:08:27.285Z,17.70
2018-06-20T01:11:30.404Z,17.60
2018-06-20T01:14:33.470Z,17.50
2018-06-20T01:17:36.612Z,17.50
2018-06-20T01:20:39.736Z,17.30
2018-06-20T01:23:42.804Z,17.20
2018-06-20T01:26:45.902Z,17.20
2018-06-20T01:29:48.997Z,17.10
2018-06-20T01:32:52.085Z,17.10
2018-06-20T01:35:55.182Z,17.10
2018-06-20T01:38:58.273Z,17.00
2018-06-20T01:42:01.381Z,16.90
2018-06-20T01:45:04.522Z,16.90
2018-06-20T01:48:08.273Z,16.80
2018-06-20T01:51:11.436Z,16.80
2018-06-20T01:54:14.510Z,16.70
2018-06-20T01:57:17.614Z,16.70
2018-06-20T02:00:21.157Z,16.70
2018-06-20T02:03:24.257Z,16.70
2018-06-20T02:06:27.369Z,16.80
2018-06-20T02:12:33.329Z,16.80
2018-06-20T02:15:36.434Z,16.90
2018-06-20T02:18:39.550Z,16.90
2018-06-20T02:21:42.645Z,16.90
2018-06-20T02:24:45.713Z,16.90
2018-06-20T02:27:48.808Z,16.90
2018-06-20T02:30:51.902Z,16.80
2018-06-20T02:33:54.983Z,16.80
2018-06-20T02:40:00.913Z,16.70
2018-06-20T02:43:03.997Z,16.60
2018-06-20T02:46:07.089Z,16.50
2018-06-20T02:49:10.157Z,16.50
2018-06-20T02:52:13.253Z,16.40
2018-06-20T02:55:16.363Z,16.40
2018-06-20T02:58:19.431Z,16.40
2018-06-20T03:01:22.545Z,16.40
2018-06-20T03:04:25.642Z,16.40
2018-06-20T03:07:28.724Z,16.40
2018-06-20T03:10:31.814Z,16.50
2018-06-20T03:13:35.446Z,16.60
2018-06-20T03:16:38.541Z,16.70
2018-06-20T03:19:41.649Z,16.70
2018-06-20T03:22:44.738Z,16.80
2018-06-20T03:25:47.822Z,16.80
2018-06-20T03:28:50.903Z,16.80
2018-06-20T03:31:53.990Z,16.80
2018-06-20T03:34:57.078Z,16.90
2018-06-20T03:38:00.157Z,16.90
2018-06-20T03:41:03.248Z,17.00
2018-06-20T03:44:06.346Z,17.00
2018-06-20T03:47:09.442Z,17.00
2018-06-20T03:50:12.528Z,17.00
2018-06-20T03:53:15.652Z,17.00
2018-06-20T03:56:18.736Z,17.10
2018-06-20T03:59:21.810Z,17.10
2018-06-20T04:02:24.926Z,17.10
2018-06-20T04:05:29.948Z,17.10
2018-06-20T04:08:33.041Z,17.20
2018-06-20T04:11:36.147Z,17.20
2018-06-20T04:14:39.225Z,17.30
2018-06-20T04:17:42.333Z,17.40
2018-06-20T04:20:45.389Z,17.40
2018-06-20T04:23:48.509Z,17.40
2018-06-20T04:27:14.709Z,17.50
2018-06-20T04:30:17.788Z,17.60
2018-06-20T04:33:20.869Z,17.60
2018-06-20T04:36:23.957Z,17.60
2018-06-20T04:39:27.320Z,17.70
2018-06-20T04:42:30.394Z,17.70
2018-06-20T04:45:33.461Z,17.80
2018-06-20T04:48:36.522Z,17.90
2018-06-20T04:51:39.605Z,18.00
2018-06-20T04:54:42.673Z,18.10
2018-06-20T04:57:45.753Z,18.10
2018-06-20T05:00:48.829Z,18.20
2018-06-20T05:03:51.893Z,18.40
2018-06-20T05:06:54.983Z,18.50
2018-06-20T05:09:58.054Z,18.70
2018-06-20T05:13:01.158Z,18.90
2018-06-20T05:16:04.257Z,19.30
2018-06-20T05:19:07.362Z,19.50
2018-06-20T05:22:10.446Z,19.90
2018-06-20T05:25:13.551Z,20.20
2018-06-20T05:28:16.649Z,20.50
2018-06-20T05:31:19.749Z,20.60
2018-06-20T05:34:22.856Z,20.80
2018-06-20T05:37:25.921Z,20.90
2018-06-20T05:40:29.001Z,21.00
2018-06-20T05:43:32.087Z,21.10
2018-06-20T05:46:35.182Z,21.10
2018-06-20T05:49:38.275Z,21.10
2018-06-20T05:52:41.376Z,21.20
2018-06-20T05:55:44.458Z,21.10
2018-06-20T05:58:47.555Z,21.30
2018-06-20T06:01:50.632Z,21.30
2018-06-20T06:04:53.742Z,21.30
2018-06-20T06:07:56.844Z,21.30
2018-06-20T06:10:59.930Z,21.50
2018-06-20T06:14:03.057Z,21.60
2018-06-20T06:17:06.186Z,21.70
2018-06-20T06:20:10.059Z,21.70
2018-06-20T06:23:13.170Z,21.70
2018-06-20T06:26:16.202Z,21.70
2018-06-20T06:29:19.313Z,21.70
2018-06-20T06:32:22.419Z,21.50
2018-06-20T06:35:25.497Z,21.50
2018-06-20T06:38:28.585Z,21.50
2018-06-20T06:41:31.658Z,21.50
2018-06-20T06:44:34.760Z,21.50
2018-06-20T06:47:37.849Z,21.50
2018-06-20T06:50:40.968Z,21.40
2018-06-20T06:53:44.075Z,21.40
2018-06-20T06:56:47.153Z,21.30
2018-06-20T06:59:50.281Z,21.30
2018-06-20T07:02:53.390Z,21.20
2018-06-20T07:05:56.444Z,21.20
2018-06-20T07:08:59.534Z,21.20
2018-06-20T07:15:05.465Z,21.30
2018-06-20T07:18:08.537Z,21.50
2018-06-20T07:21:11.616Z,21.70
2018-06-20T07:24:14.730Z,22.00
2018-06-20T07:27:17.797Z,22.40
2018-06-20T07:30:37.641Z,22.80
2018-06-20T07:33:40.733Z,23.10
2018-06-20T07:36:43.797Z,23.50
2018-06-20T07:39:46.905Z,23.70
2018-06-20T07:42:50.005Z,24.00
2018-06-20T07:45:53.073Z,24.20
2018-06-20T07:48:56.157Z,24.30
2018-06-20T07:51:59.380Z,24.20
2018-06-20T07:55:02.573Z,24.30
2018-06-20T07:58:05.645Z,24.10
2018-06-20T08:01:15.198Z,24.10
2018-06-20T08:04:23.872Z,24.10
2018-06-20T08:07:32.561Z,24.10
2018-06-20T08:10:41.071Z,23.90
2018-06-20T08:13:49.741Z,23.90
2018-06-20T08:16:58.214Z,23.90
2018-06-20T08:20:01.701Z,24.00
2018-06-20T08:23:04.771Z,23.90
2018-06-20T08:26:07.864Z,23.90
2018-06-20T08:29:10.997Z,23.90
2018-06-20T08:32:14.065Z,24.00
2018-06-20T08:35:31.698Z,24.00
2018-06-20T08:38:34.782Z,23.90
2018-06-20T08:41:37.859Z,23.90
2018-06-20T08:44:40.967Z,24.00
2018-06-20T08:47:44.026Z,24.10
2018-06-20T08:50:47.110Z,24.40
2018-06-20T08:53:50.205Z,24.40
2018-06-20T09:00:02.840Z,24.90
2018-06-20T09:03:05.913Z,25.30
2018-06-20T09:06:14.558Z,25.50
2018-06-20T09:09:23.086Z,25.50
2018-06-20T09:12:31.545Z,25.30
2018-06-20T09:15:40.068Z,25.20
2018-06-20T09:18:48.587Z,25.00
2018-06-20T09:21:57.905Z,25.10
2018-06-20T09:25:00.918Z,25.20
2018-06-20T09:28:03.984Z,25.40
2018-06-20T09:31:07.245Z,25.70
2018-06-20T09:34:16.465Z,26.10
2018-06-20T09:37:19.558Z,26.70
2018-06-20T09:40:22.632Z,26.90
2018-06-20T09:46:28.651Z,27.10
2018-06-20T09:49:31.723Z,27.10
2018-06-20T09:52:34.804Z,26.60
2018-06-20T09:55:37.896Z,26.70
2018-06-20T09:58:40.969Z,26.60
2018-06-20T10:05:57.533Z,26.90
2018-06-20T10:09:06.101Z,27.20
2018-06-20T10:12:10.882Z,27.50
2018-06-20T10:15:14.014Z,27.60
2018-06-20T10:18:17.086Z,27.60
2018-06-20T10:21:20.303Z,27.70
2018-06-20T10:24:23.256Z,27.70
2018-06-20T10:27:26.409Z,27.70
2018-06-20T10:33:32.385Z,27.80
2018-06-20T10:36:35.453Z,27.70
2018-06-20T10:39:44.305Z,27.70
2018-06-20T10:42:47.577Z,27.70
2018-06-20T10:45:56.294Z,27.60
2018-06-20T10:49:09.429Z,27.80
2018-06-20T10:52:12.527Z,27.80
2018-06-20T10:55:16.837Z,27.80
2018-06-20T10:58:25.385Z,27.50
2018-06-20T11:04:42.350Z,27.30
2018-06-20T11:07:50.841Z,27.30
2018-06-20T11:14:02.466Z,27.30
2018-06-20T11:17:05.533Z,27.40
2018-06-20T11:23:16.998Z,27.20
2018-06-20T11:26:20.066Z,26.90
2018-06-20T11:29:23.193Z,26.70
2018-06-20T11:32:26.217Z,26.50
2018-06-20T11:41:35.740Z,26.30
2018-06-20T11:44:38.806Z,26.30
2018-06-20T11:47:43.180Z,26.40
2018-06-20T11:50:46.329Z,26.60
2018-06-20T11:53:49.395Z,26.80
2018-06-20T11:56:52.476Z,27.10
2018-06-20T12:00:00.910Z,27.20
2018-06-20T12:07:20.937Z,27.10
2018-06-20T12:10:29.565Z,27.00
2018-06-20T12:13:38.059Z,27.10
2018-06-20T12:16:45.345Z,26.80
2018-06-20T12:23:02.459Z,26.40
2018-06-20T12:26:10.929Z,26.30
2018-06-20T12:29:19.430Z,26.10
2018-06-20T12:35:36.298Z,25.70
2018-06-20T12:38:46.955Z,25.60
2018-06-20T12:41:55.389Z,25.70
2018-06-20T12:45:01.166Z,25.90
2018-06-20T12:48:04.246Z,25.80
2018-06-20T12:51:07.317Z,25.80
2018-06-20T12:54:10.411Z,25.70
2018-06-20T12:57:13.525Z,25.50
2018-06-20T13:00:16.634Z,25.60
2018-06-20T13:03:19.730Z,25.60
2018-06-20T13:06:22.831Z,25.70
2018-06-20T13:09:25.900Z,25.70
2018-06-20T13:12:28.984Z,25.70
2018-06-20T13:15:32.076Z,25.70
2018-06-20T13:18:35.176Z,25.80
2018-06-20T13:21:38.268Z,25.80
2018-06-20T13:24:41.349Z,25.80
2018-06-20T13:27:46.364Z,25.60
2018-06-20T13:30:55.051Z,25.40
2018-06-20T13:43:28.925Z,25.60
2018-06-20T13:46:37.541Z,25.60
2018-06-20T13:49:40.617Z,25.50
2018-06-20T13:52:43.726Z,25.50
2018-06-20T13:55:46.797Z,25.50
2018-06-20T13:58:49.896Z,25.50
2018-06-20T14:04:55.946Z,25.60
2018-06-20T14:07:59.025Z,25.50
2018-06-20T14:11:02.090Z,25.50
2018-06-20T14:14:05.317Z,25.50
2018-06-20T14:17:09.321Z,25.40
2018-06-20T14:20:17.961Z,25.60
2018-06-20T14:23:21.053Z,25.80
2018-06-20T14:26:24.138Z,25.80
2018-06-20T14:29:32.649Z,25.60
2018-06-20T14:32:41.161Z,25.50
2018-06-20T14:35:49.630Z,25.40
2018-06-20T14:42:15.596Z,25.30
2018-06-20T14:45:24.221Z,25.20
2018-06-20T14:48:27.314Z,25.30
2018-06-20T14:51:30.404Z,25.30
2018-06-20T14:54:44.841Z,25.30
2018-06-20T14:57:47.895Z,25.30
2018-06-20T15:00:50.983Z,25.20
2018-06-20T15:03:54.057Z,25.30
2018-06-20T15:06:57.198Z,25.40
2018-06-20T15:10:00.231Z,25.50
2018-06-20T15:13:03.312Z,25.50
2018-06-20T15:16:11.809Z,25.50
2018-06-20T15:19:14.925Z,25.40
2018-06-20T15:22:18.031Z,25.40
2018-06-20T15:25:26.609Z,25.40
2018-06-20T15:34:51.952Z,25.30
2018-06-20T15:41:03.437Z,25.30
2018-06-20T15:44:06.742Z,25.20
2018-06-20T15:47:09.816Z,25.20
2018-06-20T15:50:12.906Z,25.20
2018-06-20T15:53:15.957Z,25.20
2018-06-20T15:56:19.020Z,25.10
2018-06-20T16:02:24.989Z,25.20
2018-06-20T16:05:28.073Z,25.30
2018-06-20T16:08:31.163Z,25.30
2018-06-20T16:11:34.260Z,25.30
2018-06-20T16:14:37.321Z,25.20
2018-06-20T16:17:40.395Z,25.30
2018-06-20T16:20:48.845Z,25.20
2018-06-20T16:23:57.529Z,25.20
2018-06-20T16:27:05.989Z,25.20
2018-06-20T16:30:14.661Z,25.20
2018-06-20T16:33:17.746Z,25.20
2018-06-20T16:36:20.854Z,25.20
2018-06-20T16:39:23.932Z,25.30
2018-06-20T16:42:27.005Z,25.30
2018-06-20T16:51:36.036Z,25.30
2018-06-20T16:54:39.111Z,25.20
2018-06-20T16:57:42.201Z,25.20
2018-06-20T17:00:45.302Z,25.10
2018-06-20T17:03:48.390Z,25.00
2018-06-20T17:06:51.463Z,25.00
2018-06-20T17:09:54.521Z,25.00
2018-06-20T17:16:11.626Z,24.90
2018-06-20T17:19:20.278Z,24.90
2018-06-20T17:25:33.124Z,24.90
2018-06-20T17:28:36.185Z,24.90
2018-06-20T17:31:39.261Z,24.80
2018-06-20T17:34:42.557Z,24.80
2018-06-20T17:37:45.631Z,24.80
2018-06-20T17:40:48.682Z,24.80
2018-06-20T17:46:54.618Z,24.70
2018-06-20T17:49:57.671Z,24.70
2018-06-20T17:53:00.758Z,24.60
2018-06-20T17:56:05.013Z,24.60
2018-06-20T17:59:08.105Z,24.50
2018-06-20T18:02:11.171Z,24.50
2018-06-20T18:05:19.616Z,24.50
2018-06-20T18:08:28.293Z,24.40
2018-06-20T18:11:37.021Z,24.40
2018-06-20T18:14:45.386Z,24.40
2018-06-20T18:17:48.484Z,24.30
2018-06-20T18:20:51.557Z,24.20
2018-06-20T18:23:54.629Z,24.20
2018-06-20T18:26:57.713Z,24.10
2018-06-20T18:30:00.941Z,24.10
2018-06-20T18:33:04.006Z,24.10
2018-06-20T18:36:07.070Z,24.00
2018-06-20T18:39:10.854Z,23.90
2018-06-20T18:42:13.965Z,23.80
2018-06-20T18:45:17.054Z,23.90
2018-06-20T18:51:29.728Z,23.70
2018-06-20T18:54:32.782Z,23.60
2018-06-20T18:57:41.422Z,23.60
2018-06-20T19:00:50.139Z,23.60
2018-06-20T19:03:58.742Z,23.50
2018-06-20T19:10:10.425Z,23.30
2018-06-20T19:13:13.528Z,23.30
2018-06-20T19:16:16.582Z,23.20
2018-06-20T19:19:19.678Z,23.10
2018-06-20T19:22:22.776Z,23.00
2018-06-20T19:25:25.868Z,22.90
2018-06-20T19:28:28.957Z,22.90
2018-06-20T19:31:32.043Z,22.80
2018-06-20T19:34:35.142Z,22.70
2018-06-20T19:37:38.350Z,22.70
2018-06-20T19:40:41.409Z,22.60
2018-06-20T19:43:49.826Z,22.50
2018-06-20T19:46:52.892Z,22.40
2018-06-20T19:49:55.997Z,22.40
2018-06-20T19:52:59.076Z,22.40
2018-06-20T19:56:02.142Z,22.30
2018-06-20T20:05:11.185Z,22.10
2018-06-20T20:08:14.273Z,22.00
2018-06-20T20:11:17.354Z,21.90
2018-06-20T20:14:20.461Z,21.90
2018-06-20T20:17:23.539Z,21.80
2018-06-20T20:20:26.721Z,21.80
2018-06-20T20:23:29.798Z,21.70
2018-06-20T20:26:33.230Z,21.70
2018-06-20T20:29:36.318Z,21.60
2018-06-20T20:32:39.419Z,21.60
2018-06-20T20:35:42.511Z,21.60
2018-06-20T20:38:45.606Z,21.50
2018-06-20T20:41:48.665Z,21.50
2018-06-20T20:44:51.761Z,21.40
2018-06-20T20:47:54.837Z,21.30
2018-06-20T20:50:57.933Z,21.20
2018-06-20T20:54:01.022Z,21.30
2018-06-20T20:57:04.101Z,21.20
2018-06-20T21:00:07.201Z,21.20
2018-06-20T21:03:10.265Z,21.20
2018-06-20T21:09:16.267Z,21.10
2018-06-20T21:12:19.341Z,21.10
2018-06-20T21:15:23.499Z,21.10
2018-06-20T21:18:26.575Z,21.00
2018-06-20T21:21:30.205Z,21.10
2018-06-20T21:24:33.266Z,21.00
2018-06-20T21:27:36.347Z,21.00
2018-06-20T21:30:39.437Z,21.10
2018-06-20T21:33:42.489Z,21.10
2018-06-20T21:39:48.437Z,21.00
2018-06-20T21:42:51.524Z,21.00
2018-06-20T21:45:54.615Z,21.00
2018-06-20T21:48:57.687Z,21.00
2018-06-20T21:52:00.802Z,21.00
2018-06-20T21:55:03.888Z,21.00
2018-06-20T21:58:06.961Z,21.00
2018-06-20T22:01:10.043Z,20.90
2018-06-20T22:04:13.121Z,20.80
2018-06-20T22:07:16.195Z,20.70
2018-06-20T22:10:19.260Z,20.70
2018-06-20T22:13:22.341Z,20.70
2018-06-20T22:16:25.434Z,20.60
2018-06-20T22:19:28.539Z,20.60
2018-06-20T22:22:31.609Z,20.50
2018-06-20T22:25:34.705Z,20.50
2018-06-20T22:28:37.762Z,20.40
2018-06-20T22:31:40.837Z,20.30
2018-06-20T22:34:43.937Z,20.30
2018-06-20T22:37:47.016Z,20.30
2018-06-20T22:46:55.865Z,20.10
2018-06-20T22:49:58.941Z,20.00
2018-06-20T22:53:02.221Z,20.00
2018-06-20T22:56:05.390Z,19.90
2018-06-20T22:59:08.460Z,19.90
2018-06-20T23:02:11.547Z,19.90
2018-06-20T23:05:14.630Z,19.90
2018-06-20T23:08:17.706Z,19.80
2018-06-20T23:11:20.817Z,19.70
2018-06-20T23:17:26.798Z,19.70
2018-06-20T23:20:29.897Z,19.70
2018-06-20T23:23:32.974Z,19.70
2018-06-20T23:26:36.033Z,19.60
2018-06-20T23:29:39.157Z,19.60
2018-06-20T23:32:42.278Z,19.50
2018-06-20T23:35:45.366Z,19.50
2018-06-20T23:38:48.436Z,19.40
2018-06-20T23:44:54.370Z,19.30
2018-06-20T23:47:57.432Z,19.30
2018-06-20T23:51:00.530Z,19.20
2018-06-20T23:54:03.603Z,19.20
2018-06-20T23:57:06.718Z,19.20
